Terminal Aerodrome Forecast
Issued by NWS

Home | Current Version | Previous Version | Text Only | Print | Product List | Glossary On
Versions: 1 2 3 4 5 6 7 8 9 10 11 12 13 14 15
185
FTUS44 KLZK 241140
TAFLIT
TAF
KLIT 241140Z 2412/2512 17003KT P6SM VCSH BKN050 OVC100
     FM241500 19009KT P6SM VCTS SCT030 OVC050CB
     FM241800 18009KT P6SM OVC120
     FM250000 17005KT P6SM OVC060=

USA.gov is the U.S. government's official web portal to all federal, state and local government web resources and services.